createdAt,value
2023-02-11T00:01:00.357Z,-4.35
2023-02-11T00:03:27.398Z,-4.38
2023-02-11T00:06:06.033Z,-4.43
2023-02-11T00:08:37.217Z,-4.60
2023-02-11T00:11:05.107Z,-4.70
2023-02-11T00:13:31.965Z,-4.58
2023-02-11T00:15:58.980Z,-4.58
2023-02-11T00:18:25.841Z,-4.43
2023-02-11T00:20:52.783Z,-4.33
2023-02-11T00:23:19.669Z,-4.43
2023-02-11T00:25:46.560Z,-4.48
2023-02-11T00:28:13.557Z,-4.65
2023-02-11T00:30:41.098Z,-4.73
2023-02-11T00:33:08.899Z,-4.69
2023-02-11T00:35:38.685Z,-4.78
2023-02-11T00:38:08.034Z,-4.78
2023-02-11T00:40:34.915Z,-4.80
2023-02-11T00:43:03.777Z,-4.84
2023-02-11T00:45:30.847Z,-4.92
2023-02-11T00:47:58.200Z,-4.84
2023-02-11T00:50:25.228Z,-4.87
2023-02-11T00:52:52.163Z,-5.02
2023-02-11T00:55:19.333Z,-4.95
2023-02-11T00:57:46.554Z,-4.85
2023-02-11T01:00:16.832Z,-4.81
2023-02-11T01:02:45.055Z,-4.74
2023-02-11T01:05:11.994Z,-4.66
2023-02-11T01:07:38.987Z,-4.67
2023-02-11T01:10:06.265Z,-4.36
2023-02-11T01:12:36.164Z,-4.19
2023-02-11T01:15:04.160Z,-4.09
2023-02-11T01:17:34.194Z,-3.89
2023-02-11T01:20:06.027Z,-3.86
2023-02-11T01:22:34.405Z,-3.89
2023-02-11T01:25:01.275Z,-3.78
2023-02-11T01:27:29.752Z,-3.78
2023-02-11T01:29:57.868Z,-3.78
2023-02-11T01:32:24.759Z,-3.78
2023-02-11T01:34:54.048Z,-3.78
2023-02-11T01:37:21.051Z,-3.91
2023-02-11T01:39:48.319Z,-3.99
2023-02-11T01:42:21.083Z,-4.09
2023-02-11T01:44:52.587Z,-4.36
2023-02-11T01:47:21.039Z,-4.59
2023-02-11T01:49:57.064Z,-4.81
2023-02-11T01:52:26.873Z,-4.83
2023-02-11T01:55:16.709Z,-4.73
2023-02-11T01:57:47.681Z,-4.60
2023-02-11T02:00:14.775Z,-4.51
2023-02-11T02:03:04.161Z,-4.59
2023-02-11T02:05:46.640Z,-4.56
2023-02-11T02:08:34.804Z,-4.62
2023-02-11T02:11:03.170Z,-4.68
2023-02-11T02:13:32.317Z,-5.02
2023-02-11T02:16:22.077Z,-5.22
2023-02-11T02:19:22.566Z,-5.13
2023-02-11T02:22:11.041Z,-5.17
2023-02-11T02:25:01.075Z,-5.14
2023-02-11T02:27:39.973Z,-5.13
2023-02-11T02:30:38.516Z,-4.95
2023-02-11T02:33:24.454Z,-4.75
2023-02-11T02:36:03.037Z,-4.62
2023-02-11T02:38:48.786Z,-4.61
2023-02-11T02:41:19.049Z,-4.48
2023-02-11T02:43:49.298Z,-4.41
2023-02-11T02:46:23.996Z,-4.42
2023-02-11T02:48:53.401Z,-4.56
2023-02-11T02:51:44.712Z,-4.79
2023-02-11T02:54:39.220Z,-4.66
2023-02-11T02:57:30.998Z,-4.51
2023-02-11T03:00:19.416Z,-4.77
2023-02-11T03:02:58.330Z,-5.04
2023-02-11T03:05:40.439Z,-5.42
2023-02-11T03:08:24.083Z,-5.48
2023-02-11T03:10:53.807Z,-5.74
2023-02-11T03:13:25.202Z,-5.94
2023-02-11T03:15:55.686Z,-6.04
2023-02-11T03:18:26.156Z,-5.84
2023-02-11T03:20:56.280Z,-5.80
2023-02-11T03:23:30.875Z,-5.78
2023-02-11T03:26:31.358Z,-5.83
2023-02-11T03:29:04.238Z,-5.87
2023-02-11T03:31:45.056Z,-5.93
2023-02-11T03:34:38.020Z,-6.01
2023-02-11T03:37:08.019Z,-5.89
2023-02-11T03:39:47.696Z,-5.86
2023-02-11T03:42:16.459Z,-5.82
2023-02-11T03:44:53.795Z,-5.88
2023-02-11T03:47:25.838Z,-5.74
2023-02-11T03:49:54.724Z,-5.62
2023-02-11T03:52:24.822Z,-5.67
2023-02-11T03:54:55.642Z,-5.56
2023-02-11T03:57:22.598Z,-5.72
2023-02-11T03:59:58.364Z,-5.94
2023-02-11T04:02:30.316Z,-5.91
2023-02-11T04:04:57.627Z,-5.84
2023-02-11T04:07:25.471Z,-5.93
2023-02-11T04:09:52.991Z,-5.77
2023-02-11T04:12:19.987Z,-5.95
2023-02-11T04:14:46.837Z,-6.04
2023-02-11T04:17:13.814Z,-6.10
2023-02-11T04:19:40.726Z,-6.06
2023-02-11T04:22:08.233Z,-5.93
2023-02-11T04:24:35.511Z,-5.79
2023-02-11T04:27:02.632Z,-5.61
2023-02-11T04:29:29.858Z,-5.50
2023-02-11T04:31:56.764Z,-5.47
2023-02-11T04:34:24.596Z,-5.44
2023-02-11T04:36:51.618Z,-5.48
2023-02-11T04:39:18.756Z,-5.57
2023-02-11T04:41:45.840Z,-5.66
2023-02-11T04:44:12.769Z,-5.71
2023-02-11T04:46:39.665Z,-5.67
2023-02-11T04:49:06.585Z,-5.83
2023-02-11T04:51:33.541Z,-5.96
2023-02-11T04:54:00.489Z,-5.82
2023-02-11T04:56:27.464Z,-6.02
2023-02-11T04:58:54.431Z,-6.07
2023-02-11T05:01:21.972Z,-6.10
2023-02-11T05:03:49.406Z,-6.25
2023-02-11T05:06:16.425Z,-6.39
2023-02-11T05:08:43.460Z,-6.35
2023-02-11T05:11:17.199Z,-6.23
2023-02-11T05:13:44.215Z,-6.19
2023-02-11T05:16:11.460Z,-6.17
2023-02-11T05:18:39.238Z,-6.21
2023-02-11T05:21:10.426Z,-6.05
2023-02-11T05:23:37.435Z,-5.86
2023-02-11T05:26:04.513Z,-5.82
2023-02-11T05:28:32.559Z,-5.82
2023-02-11T05:30:59.558Z,-5.91
2023-02-11T05:33:26.543Z,-6.02
2023-02-11T05:36:08.512Z,-6.18
2023-02-11T05:38:36.395Z,-6.24
2023-02-11T05:41:05.277Z,-6.48
2023-02-11T05:43:32.459Z,-6.47
2023-02-11T05:45:59.494Z,-6.40
2023-02-11T05:48:26.438Z,-6.46
2023-02-11T05:50:53.345Z,-6.28
2023-02-11T05:53:20.251Z,-6.27
2023-02-11T05:55:47.264Z,-6.17
2023-02-11T05:58:14.150Z,-6.14
2023-02-11T06:00:41.043Z,-5.93
2023-02-11T06:03:08.154Z,-5.88
2023-02-11T06:05:35.068Z,-5.79
2023-02-11T06:08:01.923Z,-5.66
2023-02-11T06:10:28.862Z,-5.53
2023-02-11T06:12:55.776Z,-5.43
2023-02-11T06:15:22.606Z,-5.37
2023-02-11T06:17:49.437Z,-5.28
2023-02-11T06:20:16.570Z,-5.29
2023-02-11T06:22:43.451Z,-5.19
2023-02-11T06:25:11.281Z,-5.05
2023-02-11T06:27:38.632Z,-4.91
2023-02-11T06:30:07.139Z,-4.78
2023-02-11T06:32:49.587Z,-4.82
2023-02-11T06:35:16.614Z,-4.94
2023-02-11T06:37:43.942Z,-4.73
2023-02-11T06:40:11.742Z,-4.61
2023-02-11T06:42:39.986Z,-4.41
2023-02-11T06:45:09.604Z,-4.34
2023-02-11T06:47:37.303Z,-4.15
2023-02-11T06:50:09.595Z,-3.98
2023-02-11T06:52:36.959Z,-3.87
2023-02-11T06:55:04.092Z,-3.72
2023-02-11T06:57:41.188Z,-3.39
2023-02-11T07:00:09.571Z,-3.24
2023-02-11T07:02:37.080Z,-3.21
2023-02-11T07:05:06.934Z,-2.80
2023-02-11T07:07:34.485Z,-2.46
2023-02-11T07:10:03.262Z,-2.30
2023-02-11T07:12:31.452Z,-2.10
2023-02-11T07:14:58.391Z,-2.05
2023-02-11T07:17:25.339Z,-2.17
2023-02-11T07:19:52.232Z,-1.96
2023-02-11T07:22:19.226Z,-1.88
2023-02-11T07:24:46.407Z,-1.72
2023-02-11T07:27:13.319Z,-1.49
2023-02-11T07:29:42.491Z,-1.52
2023-02-11T07:32:09.804Z,-1.50
2023-02-11T07:34:38.373Z,-1.16
2023-02-11T07:37:05.592Z,-1.07
2023-02-11T07:39:33.062Z,-0.96
2023-02-11T07:42:00.724Z,-0.87
2023-02-11T07:44:28.271Z,-0.87
2023-02-11T07:46:55.533Z,-0.80
2023-02-11T07:49:25.826Z,-0.62
2023-02-11T07:51:53.724Z,-0.65
2023-02-11T07:54:20.963Z,-0.48
2023-02-11T07:56:48.074Z,-0.33
2023-02-11T07:59:15.054Z,-0.44
2023-02-11T08:01:42.029Z,-0.25
2023-02-11T08:04:08.936Z,-0.04
2023-02-11T08:06:40.202Z,0.11
2023-02-11T08:09:09.506Z,0.21
2023-02-11T08:11:36.844Z,0.32
2023-02-11T08:14:03.865Z,0.37
2023-02-11T08:16:33.822Z,0.59
2023-02-11T08:19:04.528Z,0.87
2023-02-11T08:21:31.445Z,0.79
2023-02-11T08:23:58.650Z,0.87
2023-02-11T08:26:29.689Z,1.06
2023-02-11T08:28:57.766Z,1.22
2023-02-11T08:31:34.504Z,1.17
2023-02-11T08:34:02.681Z,1.22
2023-02-11T08:36:33.055Z,1.42
2023-02-11T08:39:18.222Z,1.64
2023-02-11T08:41:59.225Z,1.69
2023-02-11T08:44:26.470Z,1.81
2023-02-11T08:46:53.986Z,1.89
2023-02-11T08:49:23.030Z,1.96
2023-02-11T08:51:50.403Z,1.88
2023-02-11T08:54:18.096Z,2.08
2023-02-11T08:56:45.737Z,1.95
2023-02-11T08:59:17.189Z,1.89
2023-02-11T09:01:44.447Z,2.00
2023-02-11T09:04:11.506Z,1.84
2023-02-11T09:06:38.774Z,2.12
2023-02-11T09:09:05.750Z,2.03
2023-02-11T09:11:35.658Z,2.23
2023-02-11T09:14:03.983Z,2.36
2023-02-11T09:16:33.875Z,2.29
2023-02-11T09:19:02.115Z,2.12
2023-02-11T09:21:30.471Z,2.45
2023-02-11T09:23:57.558Z,2.38
2023-02-11T09:26:27.551Z,2.56
2023-02-11T09:28:56.193Z,2.53
2023-02-11T09:31:25.557Z,2.65
2023-02-11T09:33:55.589Z,2.90
2023-02-11T09:36:25.386Z,3.14
2023-02-11T09:38:53.405Z,3.13
2023-02-11T09:41:23.091Z,3.03
2023-02-11T09:43:56.929Z,3.18
2023-02-11T09:46:25.870Z,3.14
2023-02-11T09:48:55.350Z,3.19
2023-02-11T09:51:34.396Z,3.33
2023-02-11T09:54:07.903Z,3.33
2023-02-11T09:56:34.861Z,3.43
2023-02-11T09:59:02.054Z,3.23
2023-02-11T10:01:47.163Z,3.33
2023-02-11T10:04:57.922Z,3.48
2023-02-11T10:07:48.797Z,3.45
2023-02-11T10:10:24.852Z,3.91
2023-02-11T10:13:16.202Z,3.98
2023-02-11T10:15:48.550Z,3.98
2023-02-11T10:18:46.124Z,4.16
2023-02-11T10:21:28.528Z,4.05
2023-02-11T10:24:00.335Z,3.99
2023-02-11T10:26:31.990Z,3.85
2023-02-11T10:29:05.758Z,4.10
2023-02-11T10:31:45.021Z,4.19
2023-02-11T10:34:14.305Z,4.38
2023-02-11T10:36:44.301Z,4.37
2023-02-11T10:39:16.484Z,4.48
2023-02-11T10:42:08.995Z,4.53
2023-02-11T10:44:43.782Z,4.65
2023-02-11T10:47:21.244Z,4.66
2023-02-11T10:49:49.032Z,4.74
2023-02-11T10:52:23.987Z,4.69
2023-02-11T10:54:57.762Z,4.72
2023-02-11T10:57:30.496Z,4.87
2023-02-11T11:00:00.611Z,4.88
2023-02-11T11:02:34.489Z,4.85
2023-02-11T11:05:07.054Z,4.92
2023-02-11T11:07:34.466Z,4.82
2023-02-11T11:10:25.055Z,4.84
2023-02-11T11:12:52.165Z,5.09
2023-02-11T11:15:23.635Z,5.15
2023-02-11T11:18:20.894Z,5.23
2023-02-11T11:21:00.323Z,5.07
2023-02-11T11:23:29.638Z,5.29
2023-02-11T11:26:05.586Z,5.53
2023-02-11T11:28:43.500Z,5.70
2023-02-11T11:31:35.642Z,5.89
2023-02-11T11:34:23.321Z,5.89
2023-02-11T11:36:50.983Z,5.79
2023-02-11T11:39:21.087Z,5.86
2023-02-11T11:41:57.504Z,5.68
2023-02-11T11:44:24.492Z,5.85
2023-02-11T11:47:07.584Z,5.81
2023-02-11T11:49:59.382Z,6.04
2023-02-11T11:52:32.441Z,6.15
2023-02-11T11:55:13.185Z,6.07
2023-02-11T11:57:40.560Z,6.16
2023-02-11T12:00:15.612Z,6.09
2023-02-11T12:03:20.985Z,6.15
2023-02-11T12:06:13.407Z,6.15
2023-02-11T12:09:07.965Z,6.14
2023-02-11T12:11:43.835Z,6.01
2023-02-11T12:14:25.607Z,5.88
2023-02-11T12:16:55.156Z,5.96
2023-02-11T12:19:32.265Z,6.04
2023-02-11T12:22:11.984Z,6.15
2023-02-11T12:24:49.277Z,6.31
2023-02-11T12:27:22.082Z,6.34
2023-02-11T12:30:13.827Z,6.21
2023-02-11T12:32:47.003Z,6.06
2023-02-11T12:35:16.965Z,6.16
2023-02-11T12:38:04.181Z,6.19
2023-02-11T12:41:01.356Z,6.21
2023-02-11T12:43:37.735Z,6.00
2023-02-11T12:46:26.083Z,6.37
2023-02-11T12:49:01.030Z,6.09
2023-02-11T12:51:38.081Z,5.89
2023-02-11T12:54:31.767Z,6.09
2023-02-11T12:57:13.666Z,6.20
2023-02-11T13:00:13.187Z,6.28
2023-02-11T13:03:04.977Z,6.20
2023-02-11T13:05:53.124Z,6.19
2023-02-11T13:08:24.996Z,6.15
2023-02-11T13:11:07.089Z,6.21
2023-02-11T13:14:05.507Z,6.33
2023-02-11T13:16:37.461Z,6.27
2023-02-11T13:19:13.637Z,6.35
2023-02-11T13:22:11.310Z,6.29
2023-02-11T13:24:52.764Z,6.31
2023-02-11T13:27:45.734Z,6.26
2023-02-11T13:30:34.757Z,6.29
2023-02-11T13:33:03.265Z,6.19
2023-02-11T13:39:37.127Z,5.05
2023-02-11T13:42:04.808Z,6.24
2023-02-11T13:44:34.706Z,6.09
2023-02-11T13:47:05.033Z,6.27
2023-02-11T13:49:36.224Z,6.34
2023-02-11T13:52:06.449Z,6.33
2023-02-11T13:54:40.958Z,6.30
2023-02-11T13:57:20.095Z,6.36
2023-02-11T13:59:53.479Z,6.43
2023-02-11T14:02:47.436Z,6.27
2023-02-11T14:05:48.894Z,6.30
2023-02-11T14:08:43.343Z,6.19
2023-02-11T14:11:49.313Z,6.00
2023-02-11T14:14:33.545Z,6.04
2023-02-11T14:17:03.497Z,6.03
2023-02-11T14:19:45.598Z,6.03
2023-02-11T14:22:47.851Z,5.98
2023-02-11T14:25:25.557Z,6.02
2023-02-11T14:27:57.918Z,6.03
2023-02-11T14:30:55.411Z,5.98
2023-02-11T14:33:43.773Z,5.90
2023-02-11T14:36:32.725Z,5.95
2023-02-11T14:39:28.841Z,6.00
2023-02-11T14:42:00.551Z,5.96
2023-02-11T14:44:30.396Z,5.84
2023-02-11T14:46:58.126Z,5.66
2023-02-11T14:49:33.573Z,5.44
2023-02-11T14:52:07.526Z,5.49
2023-02-11T14:54:35.310Z,5.55
2023-02-11T14:57:21.473Z,5.52
2023-02-11T15:00:07.716Z,5.55
2023-02-11T15:02:37.314Z,5.23
2023-02-11T15:05:27.398Z,5.26
2023-02-11T15:08:03.262Z,5.24
2023-02-11T15:10:38.126Z,5.20
2023-02-11T15:13:05.922Z,5.23
2023-02-11T15:15:35.882Z,5.12
2023-02-11T15:18:04.285Z,5.07
2023-02-11T15:20:35.852Z,5.14
2023-02-11T15:23:07.798Z,5.05
2023-02-11T15:25:43.009Z,4.87
2023-02-11T15:28:31.020Z,4.91
2023-02-11T15:31:01.746Z,4.83
2023-02-11T15:33:32.939Z,4.81
2023-02-11T15:36:02.790Z,4.76
2023-02-11T15:38:30.441Z,4.51
2023-02-11T15:41:03.506Z,4.42
2023-02-11T15:43:47.341Z,4.47
2023-02-11T15:46:21.261Z,4.42
2023-02-11T15:48:49.454Z,4.34
2023-02-11T15:51:40.020Z,4.32
2023-02-11T15:54:18.957Z,4.28
2023-02-11T15:56:50.007Z,4.20
2023-02-11T15:59:27.257Z,4.10
2023-02-11T16:01:55.078Z,4.03
2023-02-11T16:05:06.319Z,4.02
2023-02-11T16:07:50.246Z,3.82
2023-02-11T16:10:24.101Z,3.87
2023-02-11T16:13:11.177Z,3.77
2023-02-11T16:15:50.947Z,3.68
2023-02-11T16:18:38.429Z,3.61
2023-02-11T16:21:15.866Z,3.52
2023-02-11T16:23:49.353Z,3.47
2023-02-11T16:26:34.024Z,3.47
2023-02-11T16:29:05.037Z,3.40
2023-02-11T16:31:43.306Z,3.40
2023-02-11T16:34:28.282Z,3.46
2023-02-11T16:36:55.676Z,3.39
2023-02-11T16:39:22.980Z,3.19
2023-02-11T16:41:51.868Z,3.11
2023-02-11T16:44:18.831Z,3.13
2023-02-11T16:46:46.080Z,3.02
2023-02-11T16:49:22.686Z,3.06
2023-02-11T16:51:50.846Z,2.87
2023-02-11T16:54:18.914Z,2.88
2023-02-11T16:56:46.295Z,2.71
2023-02-11T16:59:13.452Z,2.80
2023-02-11T17:01:42.093Z,2.78
2023-02-11T17:04:31.568Z,2.80
2023-02-11T17:06:58.865Z,2.73
2023-02-11T17:09:30.597Z,2.69
2023-02-11T17:11:58.234Z,2.66
2023-02-11T17:14:25.182Z,2.59
2023-02-11T17:16:54.710Z,2.54
2023-02-11T17:19:21.850Z,2.42
2023-02-11T17:21:51.716Z,2.34
2023-02-11T17:24:20.624Z,2.30
2023-02-11T17:26:48.662Z,2.05
2023-02-11T17:29:20.993Z,2.15
2023-02-11T17:31:48.283Z,2.12
2023-02-11T17:34:16.621Z,2.09
2023-02-11T17:36:44.023Z,2.14
2023-02-11T17:39:11.088Z,2.15
2023-02-11T17:41:39.024Z,2.07
2023-02-11T17:44:07.709Z,2.09
2023-02-11T17:46:35.547Z,2.10
2023-02-11T17:49:03.815Z,2.12
2023-02-11T17:51:36.621Z,1.97
2023-02-11T17:54:11.025Z,1.80
2023-02-11T17:56:38.490Z,1.72
2023-02-11T17:59:06.512Z,1.58
2023-02-11T18:01:34.003Z,1.64
2023-02-11T18:04:01.841Z,1.53
2023-02-11T18:06:29.290Z,1.52
2023-02-11T18:08:58.037Z,1.45
2023-02-11T18:11:25.986Z,1.29
2023-02-11T18:13:54.460Z,1.25
2023-02-11T18:16:22.430Z,1.28
2023-02-11T18:18:50.134Z,1.36
2023-02-11T18:21:20.122Z,1.20
2023-02-11T18:23:47.893Z,1.34
2023-02-11T18:26:16.400Z,1.15
2023-02-11T18:28:45.849Z,1.14
2023-02-11T18:31:13.901Z,1.16
2023-02-11T18:33:42.249Z,1.13
2023-02-11T18:36:14.366Z,0.96
2023-02-11T18:38:47.138Z,1.03
2023-02-11T18:41:14.508Z,0.95
2023-02-11T18:43:43.016Z,0.99
2023-02-11T18:46:12.683Z,0.97
2023-02-11T18:48:40.429Z,0.74
2023-02-11T18:51:13.205Z,0.71
2023-02-11T18:53:40.125Z,0.76
2023-02-11T18:56:10.731Z,0.76
2023-02-11T18:58:38.091Z,0.81
2023-02-11T19:01:17.588Z,0.89
2023-02-11T19:03:45.190Z,0.79
2023-02-11T19:06:20.013Z,0.89
2023-02-11T19:08:47.434Z,0.78
2023-02-11T19:11:18.700Z,0.79
2023-02-11T19:13:51.346Z,0.59
2023-02-11T19:16:19.866Z,0.53
2023-02-11T19:18:46.992Z,0.33
2023-02-11T19:21:13.858Z,0.57
2023-02-11T19:23:40.822Z,0.41
2023-02-11T19:26:07.929Z,0.22
2023-02-11T19:28:37.197Z,-0.18
2023-02-11T19:31:09.183Z,-0.26
2023-02-11T19:33:36.833Z,-0.51
2023-02-11T19:36:08.237Z,-0.65
2023-02-11T19:38:35.898Z,-0.67
2023-02-11T19:41:02.868Z,-0.59
2023-02-11T19:43:30.433Z,-0.52
2023-02-11T19:45:57.793Z,-0.61
2023-02-11T19:48:25.445Z,-0.24
2023-02-11T19:50:52.812Z,-0.18
2023-02-11T19:53:19.834Z,-0.23
2023-02-11T20:09:20.147Z,-0.01
2023-02-11T20:11:47.256Z,0.09
2023-02-11T20:14:15.212Z,0.10
2023-02-11T20:16:49.176Z,0.26
2023-02-11T20:19:20.030Z,0.22
2023-02-11T20:21:48.928Z,0.32
2023-02-11T20:24:19.654Z,0.32
2023-02-11T20:26:48.506Z,0.25
2023-02-11T20:29:17.503Z,0.29
2023-02-11T20:31:44.901Z,0.13
2023-02-11T20:34:12.621Z,0.22
2023-02-11T20:36:40.677Z,0.25
2023-02-11T20:39:08.186Z,0.17
2023-02-11T20:41:39.221Z,-0.07
2023-02-11T20:44:09.988Z,-0.01
2023-02-11T20:46:40.170Z,-0.09
2023-02-11T20:49:08.876Z,-0.28
2023-02-11T20:51:37.389Z,-0.49
2023-02-11T20:54:07.627Z,-0.67
2023-02-11T20:56:36.949Z,-0.87
2023-02-11T20:59:05.943Z,-1.02
2023-02-11T21:01:35.910Z,-1.17
2023-02-11T21:04:06.310Z,-1.17
2023-02-11T21:06:42.042Z,-1.31
2023-02-11T21:09:13.148Z,-1.26
2023-02-11T21:11:40.345Z,-0.99
2023-02-11T21:14:07.765Z,-0.89
2023-02-11T21:16:34.602Z,-0.83
2023-02-11T21:19:02.896Z,-1.02
2023-02-11T21:21:29.866Z,-1.23
2023-02-11T21:23:58.440Z,-1.36
2023-02-11T21:26:26.234Z,-1.44
2023-02-11T21:28:55.153Z,-1.39
2023-02-11T21:31:25.138Z,-1.22
2023-02-11T21:33:54.553Z,-1.16
2023-02-11T21:36:22.823Z,-1.15
2023-02-11T21:38:50.137Z,-1.26
2023-02-11T21:41:17.605Z,-1.09
2023-02-11T21:43:45.121Z,-0.96
2023-02-11T21:46:14.882Z,-0.92
2023-02-11T21:48:42.345Z,-0.89
2023-02-11T21:51:13.034Z,-1.02
2023-02-11T21:53:39.952Z,-0.83
2023-02-11T21:56:09.965Z,-0.74
2023-02-11T21:58:36.918Z,-0.65
2023-02-11T22:01:28.503Z,-0.78
2023-02-11T22:03:55.747Z,-0.58
2023-02-11T22:06:26.292Z,-0.57
2023-02-11T22:08:54.725Z,-0.74
2023-02-11T22:11:21.830Z,-0.80
2023-02-11T22:13:54.070Z,-0.95
2023-02-11T22:16:21.294Z,-1.13
2023-02-11T22:18:48.305Z,-1.18
2023-02-11T22:21:17.475Z,-1.22
2023-02-11T22:23:45.191Z,-1.36
2023-02-11T22:26:18.399Z,-1.42
2023-02-11T22:28:45.667Z,-1.46
2023-02-11T22:31:19.402Z,-1.58
2023-02-11T22:33:46.932Z,-1.52
2023-02-11T22:36:26.297Z,-1.60
2023-02-11T22:38:54.150Z,-1.87
2023-02-11T22:41:22.597Z,-1.87
2023-02-11T22:43:49.544Z,-2.00
2023-02-11T22:46:18.455Z,-2.22
2023-02-11T22:48:45.959Z,-2.28
2023-02-11T22:51:16.367Z,-2.19
2023-02-11T22:53:46.509Z,-2.26
2023-02-11T22:56:15.596Z,-2.14
2023-02-11T22:58:43.504Z,-2.14
2023-02-11T23:01:11.535Z,-2.20
2023-02-11T23:03:38.913Z,-2.06
2023-02-11T23:06:06.417Z,-1.92
2023-02-11T23:08:33.646Z,-1.81
2023-02-11T23:11:09.825Z,-1.76
2023-02-11T23:13:38.779Z,-1.66
2023-02-11T23:16:08.621Z,-1.58
2023-02-11T23:18:36.817Z,-1.44
2023-02-11T23:21:06.804Z,-1.44
2023-02-11T23:23:34.630Z,-1.43
2023-02-11T23:26:02.082Z,-1.45
2023-02-11T23:28:29.724Z,-1.32
2023-02-11T23:30:56.696Z,-1.44
2023-02-11T23:33:23.672Z,-1.44
2023-02-11T23:35:50.578Z,-1.38
2023-02-11T23:38:17.572Z,-1.44
2023-02-11T23:40:44.396Z,-1.38
2023-02-11T23:43:11.259Z,-1.22
2023-02-11T23:45:38.144Z,-1.17
2023-02-11T23:48:05.036Z,-1.07
2023-02-11T23:50:32.659Z,-1.08
2023-02-11T23:52:59.545Z,-1.07
2023-02-11T23:55:26.381Z,-1.06
2023-02-11T23:57:53.235Z,-0.90
